createdAt,value
2023-01-18T00:02:52.751Z,1.83
2023-01-18T00:05:54.945Z,1.70
2023-01-18T00:08:57.038Z,1.90
2023-01-18T00:12:01.679Z,2.17
2023-01-18T00:15:04.352Z,1.95
2023-01-18T00:18:08.063Z,2.30
2023-01-18T00:21:12.099Z,2.45
2023-01-18T00:24:14.320Z,2.50
2023-01-18T00:27:17.039Z,2.55
2023-01-18T00:30:22.910Z,2.50
2023-01-18T00:33:26.182Z,2.10
2023-01-18T00:36:28.043Z,1.98
2023-01-18T00:39:32.816Z,2.17
2023-01-18T00:42:37.036Z,2.15
2023-01-18T00:45:41.476Z,2.10
2023-01-18T00:48:44.757Z,2.50
2023-01-18T00:51:47.045Z,2.17
2023-01-18T00:54:48.821Z,2.47
2023-01-18T00:57:50.919Z,2.60
2023-01-18T01:00:54.239Z,1.85
2023-01-18T01:03:57.600Z,2.03
2023-01-18T01:07:00.346Z,1.90
2023-01-18T01:10:02.123Z,1.95
2023-01-18T01:13:04.418Z,1.85
2023-01-18T01:16:07.912Z,1.90
2023-01-18T01:19:13.722Z,1.88
2023-01-18T01:22:15.758Z,1.60
2023-01-18T01:25:17.502Z,1.60
2023-01-18T01:28:22.132Z,1.60
2023-01-18T01:31:24.126Z,2.10
2023-01-18T01:34:27.288Z,1.60
2023-01-18T01:37:29.282Z,1.50
2023-01-18T01:40:33.899Z,1.80
2023-01-18T01:43:39.481Z,1.35
2023-01-18T01:46:47.025Z,1.40
2023-01-18T01:49:57.493Z,1.40
2023-01-18T01:52:59.726Z,1.25
2023-01-18T01:56:02.587Z,1.20
2023-01-18T01:59:06.068Z,1.20
2023-01-18T02:02:10.976Z,1.35
2023-01-18T02:05:17.100Z,1.45
2023-01-18T02:08:21.921Z,1.50
2023-01-18T02:11:28.422Z,0.95
2023-01-18T02:14:32.371Z,1.13
2023-01-18T02:18:00.040Z,1.15
2023-01-18T02:21:18.098Z,1.20
2023-01-18T02:24:59.098Z,1.33
2023-01-18T02:28:11.811Z,1.10
2023-01-18T02:31:17.456Z,1.00
2023-01-18T02:34:32.099Z,1.20
2023-01-18T02:37:44.022Z,1.17
2023-01-18T02:41:12.303Z,1.17
2023-01-18T02:44:18.187Z,1.35
2023-01-18T02:47:22.747Z,1.10
2023-01-18T02:50:29.268Z,1.10
2023-01-18T02:53:35.446Z,1.20
2023-01-18T02:56:41.357Z,1.75
2023-01-18T02:59:50.553Z,1.30
2023-01-18T03:06:01.297Z,1.10
2023-01-18T03:09:03.543Z,0.95
2023-01-18T03:12:13.851Z,1.00
2023-01-18T03:15:29.288Z,1.25
2023-01-18T03:18:39.772Z,1.17
2023-01-18T03:21:50.814Z,1.20
2023-01-18T03:24:52.865Z,1.20
2023-01-18T03:28:05.502Z,1.27
2023-01-18T03:31:14.504Z,1.40
2023-01-18T03:34:22.567Z,1.02
2023-01-18T03:37:29.793Z,1.40
2023-01-18T03:40:33.159Z,1.40
2023-01-18T03:43:36.228Z,1.40
2023-01-18T03:46:43.776Z,1.17
2023-01-18T03:49:48.420Z,1.00
2023-01-18T03:52:54.568Z,1.45
2023-01-18T03:56:02.320Z,1.33
2023-01-18T03:59:05.029Z,1.20
2023-01-18T04:02:09.439Z,1.10
2023-01-18T04:05:11.566Z,1.10
2023-01-18T04:08:13.380Z,0.90
2023-01-18T04:11:15.198Z,1.10
2023-01-18T04:14:18.393Z,1.00
2023-01-18T04:17:23.854Z,0.88
2023-01-18T04:20:32.870Z,1.13
2023-01-18T04:23:37.263Z,0.90
2023-01-18T04:26:39.346Z,1.20
2023-01-18T04:29:42.620Z,1.60
2023-01-18T04:32:46.055Z,0.95
2023-01-18T04:35:51.126Z,1.00
2023-01-18T04:38:54.207Z,0.88
2023-01-18T04:41:57.279Z,0.82
2023-01-18T04:45:00.338Z,0.90
2023-01-18T04:48:07.415Z,1.02
2023-01-18T04:51:14.555Z,1.08
2023-01-18T04:54:17.509Z,0.80
2023-01-18T04:57:19.950Z,0.90
2023-01-18T05:00:22.151Z,0.90
2023-01-18T05:03:27.814Z,1.05
2023-01-18T05:06:29.613Z,0.80
2023-01-18T05:09:32.727Z,0.90
2023-01-18T05:12:34.769Z,1.00
2023-01-18T05:15:36.620Z,0.80
2023-01-18T05:18:42.841Z,1.02
2023-01-18T05:21:44.872Z,0.93
2023-01-18T05:24:49.540Z,0.90
2023-01-18T05:27:51.432Z,0.80
2023-01-18T05:30:54.622Z,1.20
2023-01-18T05:34:00.446Z,1.20
2023-01-18T05:37:02.553Z,1.50
2023-01-18T05:40:07.632Z,1.15
2023-01-18T05:43:09.717Z,2.67
2023-01-18T05:46:11.531Z,1.92
2023-01-18T05:49:15.076Z,2.65
2023-01-18T05:52:16.903Z,4.53
2023-01-18T05:55:18.889Z,3.17
2023-01-18T05:58:20.837Z,2.25
2023-01-18T06:01:22.985Z,1.98
2023-01-18T06:04:26.652Z,1.80
2023-01-18T06:07:28.756Z,3.17
2023-01-18T06:10:30.770Z,3.00
2023-01-18T06:13:34.217Z,2.03
2023-01-18T06:16:36.083Z,1.67
2023-01-18T06:19:39.483Z,2.33
2023-01-18T06:22:42.352Z,1.40
2023-01-18T06:25:44.327Z,1.40
2023-01-18T06:28:48.631Z,1.40
2023-01-18T06:31:50.492Z,1.20
2023-01-18T06:34:53.915Z,1.40
2023-01-18T06:37:55.919Z,1.50
2023-01-18T06:40:58.069Z,1.50
2023-01-18T06:44:00.125Z,1.08
2023-01-18T06:47:02.417Z,1.00
2023-01-18T06:50:06.264Z,1.10
2023-01-18T06:53:10.364Z,1.50
2023-01-18T06:56:14.720Z,1.70
2023-01-18T06:59:16.549Z,1.30
2023-01-18T07:02:20.689Z,1.90
2023-01-18T07:05:26.040Z,2.00
2023-01-18T07:08:32.818Z,1.38
2023-01-18T07:11:34.886Z,1.73
2023-01-18T07:14:39.451Z,2.13
2023-01-18T07:17:41.480Z,2.05
2023-01-18T07:20:45.130Z,1.88
2023-01-18T07:23:48.873Z,1.90
2023-01-18T07:26:51.520Z,1.85
2023-01-18T07:29:53.445Z,2.00
2023-01-18T07:32:55.230Z,3.25
2023-01-18T07:35:59.433Z,2.45
2023-01-18T07:39:01.710Z,1.80
2023-01-18T07:42:05.954Z,2.38
2023-01-18T07:45:09.238Z,4.10
2023-01-18T07:48:13.600Z,4.80
2023-01-18T07:51:20.654Z,4.47
2023-01-18T07:54:22.698Z,3.30
2023-01-18T07:57:26.764Z,3.67
2023-01-18T08:00:29.104Z,5.70
2023-01-18T08:03:31.162Z,6.88
2023-01-18T08:06:35.139Z,7.70
2023-01-18T08:29:58.412Z,1.60
2023-01-18T08:33:01.883Z,1.70
2023-01-18T08:36:04.576Z,1.75
2023-01-18T08:39:06.507Z,1.70
2023-01-18T08:42:11.429Z,1.60
2023-01-18T08:45:16.322Z,1.70
2023-01-18T08:48:18.424Z,1.80
2023-01-18T08:51:21.243Z,2.15
2023-01-18T08:54:25.382Z,1.77
2023-01-18T08:57:30.426Z,2.00
2023-01-18T09:00:34.098Z,2.10
2023-01-18T09:03:37.721Z,2.10
2023-01-18T09:06:39.747Z,1.92
2023-01-18T09:09:41.975Z,2.10
2023-01-18T09:12:44.291Z,2.00
2023-01-18T09:15:49.864Z,1.90
2023-01-18T09:18:52.004Z,1.83
2023-01-18T09:21:53.870Z,1.60
2023-01-18T09:24:57.206Z,2.00
2023-01-18T09:27:59.545Z,2.10
2023-01-18T09:31:06.341Z,2.22
2023-01-18T09:34:18.996Z,2.00
2023-01-18T09:37:25.737Z,1.80
2023-01-18T09:40:42.023Z,2.33
2023-01-18T09:43:50.391Z,2.25
2023-01-18T09:47:00.308Z,2.22
2023-01-18T09:50:14.452Z,2.42
2023-01-18T09:53:27.972Z,2.13
2023-01-18T09:56:39.353Z,2.40
2023-01-18T09:59:50.243Z,2.20
2023-01-18T10:02:58.045Z,2.35
2023-01-18T10:06:08.795Z,2.33
2023-01-18T10:09:14.046Z,1.90
2023-01-18T10:12:22.730Z,2.60
2023-01-18T10:15:30.771Z,2.45
2023-01-18T10:18:36.246Z,1.98
2023-01-18T10:21:53.085Z,1.90
2023-01-18T10:25:01.439Z,1.48
2023-01-18T10:28:20.266Z,1.40
2023-01-18T10:31:34.287Z,1.23
2023-01-18T10:34:43.962Z,1.00
2023-01-18T10:37:46.421Z,1.00
2023-01-18T10:40:55.235Z,0.80
2023-01-18T11:17:15.167Z,0.80
2023-01-18T11:20:19.300Z,1.17
2023-01-18T11:23:25.449Z,1.02
2023-01-18T11:26:27.583Z,0.80
2023-01-18T11:29:32.589Z,0.77
2023-01-18T11:32:35.882Z,1.00
2023-01-18T11:35:40.338Z,0.80
2023-01-18T11:38:42.451Z,0.95
2023-01-18T11:41:44.504Z,0.95
2023-01-18T11:44:53.902Z,0.90
2023-01-18T11:48:09.928Z,1.30
2023-01-18T11:51:20.143Z,1.17
2023-01-18T11:54:27.253Z,1.30
2023-01-18T11:57:30.886Z,1.05
2023-01-18T12:00:46.699Z,1.00
2023-01-18T12:03:57.077Z,0.90
2023-01-18T12:07:09.603Z,0.90
2023-01-18T12:10:20.147Z,0.75
2023-01-18T12:13:34.920Z,1.20
2023-01-18T12:16:57.734Z,1.15
2023-01-18T12:20:18.171Z,0.90
2023-01-18T12:23:51.664Z,1.33
2023-01-18T12:26:56.099Z,1.13
2023-01-18T12:30:20.925Z,1.10
2023-01-18T12:33:43.125Z,1.00
2023-01-18T12:37:23.040Z,1.42
2023-01-18T12:40:50.430Z,1.40
2023-01-18T12:44:12.189Z,0.95
2023-01-18T12:47:33.801Z,1.30
2023-01-18T12:50:37.813Z,1.23
2023-01-18T12:53:46.297Z,1.63
2023-01-18T12:56:53.456Z,1.00
2023-01-18T13:00:02.606Z,1.25
2023-01-18T13:03:12.785Z,1.17
2023-01-18T13:06:18.587Z,1.73
2023-01-18T13:09:26.992Z,1.80
2023-01-18T13:12:29.582Z,2.43
2023-01-18T13:15:43.217Z,1.25
2023-01-18T13:18:53.913Z,0.90
2023-01-18T13:22:07.478Z,1.52
2023-01-18T13:25:37.035Z,1.10
2023-01-18T13:28:38.832Z,0.90
2023-01-18T13:31:42.815Z,0.73
2023-01-18T13:34:48.505Z,1.00
2023-01-18T13:37:55.785Z,1.42
2023-01-18T13:41:01.310Z,0.90
2023-01-18T13:44:05.832Z,0.60
2023-01-18T13:47:40.876Z,0.60
2023-01-18T13:50:44.478Z,0.75
2023-01-18T13:53:50.075Z,2.92
2023-01-18T13:57:16.789Z,0.70
2023-01-18T14:00:25.841Z,0.70
2023-01-18T14:03:31.661Z,1.13
2023-01-18T14:06:36.978Z,0.88
2023-01-18T14:09:42.648Z,1.02
2023-01-18T14:12:50.748Z,0.75
2023-01-18T14:15:54.711Z,0.90
2023-01-18T14:19:01.563Z,1.15
2023-01-18T14:22:19.851Z,1.70
2023-01-18T14:25:44.663Z,1.48
2023-01-18T14:28:50.979Z,1.15
2023-01-18T14:31:56.746Z,1.27
2023-01-18T14:35:01.978Z,1.15
2023-01-18T14:38:18.962Z,0.88
2023-01-18T14:41:23.378Z,2.67
2023-01-18T14:44:56.815Z,1.90
2023-01-18T14:48:02.416Z,1.80
2023-01-18T14:51:04.887Z,1.70
2023-01-18T14:54:16.490Z,1.90
2023-01-18T14:57:18.617Z,2.83
2023-01-18T15:00:23.298Z,2.42
2023-01-18T15:03:27.024Z,1.80
2023-01-18T15:06:44.117Z,2.03
2023-01-18T15:09:47.698Z,2.05
2023-01-18T15:12:53.581Z,2.05
2023-01-18T15:15:58.856Z,1.73
2023-01-18T15:19:03.487Z,1.83
2023-01-18T15:22:07.591Z,3.33
2023-01-18T15:25:20.165Z,3.25
2023-01-18T15:28:24.528Z,3.90
2023-01-18T15:31:29.471Z,4.10
2023-01-18T15:34:35.732Z,3.67
2023-01-18T15:37:38.169Z,5.00
2023-01-18T15:40:45.245Z,4.15
2023-01-18T15:43:47.287Z,3.90
2023-01-18T15:46:50.552Z,4.20
2023-01-18T15:49:55.636Z,4.53
2023-01-18T15:52:59.679Z,5.22
2023-01-18T15:56:03.724Z,6.03
2023-01-18T15:59:09.147Z,2.92
2023-01-18T16:02:21.051Z,3.20
2023-01-18T16:05:26.694Z,3.55
2023-01-18T16:08:28.847Z,2.60
2023-01-18T16:11:32.796Z,2.42
2023-01-18T16:14:37.043Z,2.35
2023-01-18T16:17:44.113Z,1.92
2023-01-18T16:20:48.178Z,1.80
2023-01-18T16:23:52.740Z,2.85
2023-01-18T16:26:57.164Z,3.47
2023-01-18T16:30:01.356Z,3.50
2023-01-18T16:33:14.450Z,2.80
2023-01-18T16:36:18.665Z,2.67
2023-01-18T16:39:20.876Z,3.10
2023-01-18T16:42:36.974Z,2.67
2023-01-18T16:45:39.989Z,2.53
2023-01-18T16:48:44.427Z,3.97
2023-01-18T16:51:49.528Z,3.42
2023-01-18T16:54:53.288Z,3.13
2023-01-18T16:57:55.761Z,3.40
2023-01-18T17:01:04.550Z,3.42
2023-01-18T17:04:07.985Z,3.97
2023-01-18T17:07:10.993Z,4.38
2023-01-18T17:10:22.691Z,4.43
2023-01-18T17:13:24.904Z,5.35
2023-01-18T17:16:28.639Z,5.55
2023-01-18T17:19:32.312Z,6.07
2023-01-18T17:22:35.321Z,4.40
2023-01-18T17:25:37.407Z,3.90
2023-01-18T17:28:40.557Z,4.45
2023-01-18T17:31:52.196Z,4.32
2023-01-18T17:34:59.358Z,4.22
2023-01-18T17:38:11.604Z,4.75
2023-01-18T17:41:26.699Z,5.18
2023-01-18T17:44:36.492Z,4.43
2023-01-18T17:47:42.209Z,4.45
2023-01-18T17:50:47.941Z,4.85
2023-01-18T17:53:51.249Z,4.68
2023-01-18T17:56:54.104Z,5.05
2023-01-18T17:59:56.260Z,4.95
2023-01-18T18:03:01.220Z,5.15
2023-01-18T18:06:06.847Z,5.65
2023-01-18T18:09:10.757Z,5.53
2023-01-18T18:12:13.921Z,4.25
2023-01-18T18:15:18.362Z,5.05
2023-01-18T18:18:23.263Z,5.00
2023-01-18T18:21:27.880Z,4.68
2023-01-18T18:24:31.567Z,5.00
2023-01-18T18:27:44.636Z,4.75
2023-01-18T18:30:49.940Z,5.18
2023-01-18T18:33:52.735Z,4.70
2023-01-18T18:37:00.114Z,5.32
2023-01-18T18:40:03.360Z,4.65
2023-01-18T18:43:07.431Z,4.70
2023-01-18T18:46:10.669Z,5.13
2023-01-18T18:49:13.578Z,4.88
2023-01-18T18:52:18.220Z,4.70
2023-01-18T18:55:21.332Z,4.80
2023-01-18T18:58:27.060Z,5.38
2023-01-18T19:01:34.562Z,5.05
2023-01-18T19:04:37.576Z,5.13
2023-01-18T19:07:44.754Z,4.72
2023-01-18T19:10:48.814Z,5.18
2023-01-18T19:13:51.597Z,4.97
2023-01-18T19:16:54.939Z,4.43
2023-01-18T19:19:57.971Z,4.30
2023-01-18T19:23:05.229Z,4.45
2023-01-18T19:26:08.272Z,4.75
2023-01-18T19:29:11.120Z,4.43
2023-01-18T19:32:15.011Z,4.22
2023-01-18T19:35:19.699Z,4.10
2023-01-18T19:38:24.375Z,4.15
2023-01-18T19:41:27.468Z,3.95
2023-01-18T19:44:32.602Z,4.40
2023-01-18T19:47:36.667Z,3.90
2023-01-18T19:50:40.537Z,4.80
2023-01-18T19:53:44.907Z,4.50
2023-01-18T19:56:49.992Z,4.70
2023-01-18T19:59:52.000Z,4.40
2023-01-18T20:02:55.996Z,4.45
2023-01-18T20:05:58.867Z,4.93
2023-01-18T20:09:18.565Z,4.85
2023-01-18T20:12:24.089Z,5.03
2023-01-18T20:15:28.035Z,4.80
2023-01-18T20:18:41.872Z,4.53
2023-01-18T20:21:47.051Z,4.70
2023-01-18T20:24:55.428Z,4.35
2023-01-18T20:27:58.304Z,4.30
2023-01-18T20:31:01.673Z,4.53
2023-01-18T20:34:04.874Z,4.15
2023-01-18T20:37:08.679Z,3.72
2023-01-18T20:40:18.772Z,4.60
2023-01-18T20:43:22.442Z,4.13
2023-01-18T20:46:24.867Z,3.90
2023-01-18T20:49:37.761Z,4.40
2023-01-18T20:52:40.744Z,4.18
2023-01-18T20:55:46.242Z,3.72
2023-01-18T20:58:50.867Z,4.47
2023-01-18T21:01:54.497Z,3.90
2023-01-18T21:04:59.574Z,3.83
2023-01-18T21:08:01.841Z,3.67
2023-01-18T21:11:11.480Z,3.80
2023-01-18T21:14:14.258Z,3.97
2023-01-18T21:17:16.879Z,3.95
2023-01-18T21:20:19.003Z,3.47
2023-01-18T21:23:21.356Z,3.05
2023-01-18T21:26:25.649Z,3.00
2023-01-18T21:29:30.032Z,3.42
2023-01-18T21:32:33.052Z,3.38
2023-01-18T21:35:37.368Z,3.70
2023-01-18T21:38:39.462Z,3.35
2023-01-18T21:41:42.955Z,3.33
2023-01-18T21:44:45.119Z,3.75
2023-01-18T21:47:47.273Z,3.53
2023-01-18T21:50:49.470Z,3.45
2023-01-18T21:53:51.376Z,3.35
2023-01-18T21:56:55.552Z,3.53
2023-01-18T21:59:57.465Z,3.78
2023-01-18T22:02:59.495Z,3.97
2023-01-18T22:06:03.566Z,3.65
2023-01-18T22:09:08.295Z,4.38
2023-01-18T22:12:11.570Z,4.40
2023-01-18T22:15:13.727Z,4.50
2023-01-18T22:18:15.801Z,4.68
2023-01-18T22:21:20.218Z,4.75
2023-01-18T22:24:22.111Z,4.65
2023-01-18T22:27:28.518Z,4.40
2023-01-18T22:30:30.326Z,4.60
2023-01-18T22:33:32.193Z,4.60
2023-01-18T22:36:36.838Z,5.72
2023-01-18T22:39:40.968Z,5.07
2023-01-18T22:42:46.643Z,4.97
2023-01-18T22:45:55.109Z,6.20
2023-01-18T22:48:57.747Z,5.85
2023-01-18T22:52:01.906Z,5.30
2023-01-18T22:55:04.117Z,5.93
2023-01-18T22:58:07.526Z,6.15
2023-01-18T23:01:26.487Z,6.20
2023-01-18T23:04:28.987Z,6.10
2023-01-18T23:07:31.297Z,6.28
2023-01-18T23:10:36.547Z,5.93
2023-01-18T23:13:48.284Z,6.60
2023-01-18T23:16:50.606Z,6.35
2023-01-18T23:19:53.705Z,6.72
2023-01-18T23:22:55.761Z,6.78
2023-01-18T23:25:59.550Z,6.35
2023-01-18T23:29:05.128Z,7.15
2023-01-18T23:32:08.009Z,6.90
2023-01-18T23:35:10.989Z,6.90
2023-01-18T23:38:13.044Z,6.57
2023-01-18T23:41:15.043Z,7.22
2023-01-18T23:44:18.373Z,7.65
2023-01-18T23:47:22.465Z,6.85
2023-01-18T23:50:25.352Z,7.93
2023-01-18T23:53:27.335Z,7.75
2023-01-18T23:56:29.595Z,7.55
2023-01-18T23:59:33.251Z,8.20
